Time;durP1;ratioP1;P1;durP2;ratioP2;P2;SDS_P1;SDS_P2;PMS_P1;PMS_P2;Temp;Humidity;BMP_temperature;BMP_pressure;BME280_temperature;BME280_humidity;BME280_pressure;Samples;Min_cycle;Max_cycle;Signal;HPM_P1;HPM_P2
2022/07/20 00:02:21;;;;;;;6.97;3.03;;;;;;;21.06;48.97;100810.59;5042093;28;20087;-78
2022/07/20 00:04:47;;;;;;;7.47;3.70;;;;;;;20.98;48.67;100819.84;5044162;28;20044;-78
2022/07/20 00:07:12;;;;;;;6.40;4.00;;;;;;;20.96;48.66;100819.06;5045346;28;20395;-78
2022/07/20 00:12:21;;;;;;;7.38;3.90;;;;;;;20.94;48.80;100820.09;5026125;28;20087;-79
2022/07/20 00:14:47;;;;;;;8.32;4.10;;;;;;;20.87;49.02;100821.28;5041882;28;20135;-78
2022/07/20 00:17:13;;;;;;;8.13;3.70;;;;;;;20.81;49.30;100814.38;5045753;28;20075;-78
2022/07/20 00:19:39;;;;;;;7.50;3.97;;;;;;;20.73;49.87;100814.72;5042693;28;20029;-78
2022/07/20 00:22:04;;;;;;;6.70;3.67;;;;;;;20.68;50.14;100818.56;5042878;28;20044;-77
2022/07/20 00:24:29;;;;;;;5.45;3.45;;;;;;;20.65;50.19;100822.25;5042914;28;20040;-78
2022/07/20 00:26:54;;;;;;;7.60;3.88;;;;;;;20.60;50.04;100818.03;5044379;28;20067;-78
2022/07/20 00:29:20;;;;;;;9.57;3.95;;;;;;;20.57;50.08;100822.56;5041699;28;20029;-78
2022/07/20 00:31:45;;;;;;;8.60;3.92;;;;;;;20.58;50.04;100821.63;5040447;28;20095;-78
2022/07/20 00:34:10;;;;;;;8.93;4.00;;;;;;;20.56;49.99;100823.47;5042723;28;20045;-78
2022/07/20 00:36:36;;;;;;;6.05;4.15;;;;;;;20.55;50.23;100823.56;5042516;28;20045;-78
2022/07/20 00:39:02;;;;;;;8.05;4.43;;;;;;;20.51;50.17;100828.16;5044250;28;20029;-78
2022/07/20 00:41:27;;;;;;;8.27;4.45;;;;;;;20.46;49.97;100827.50;5043377;28;20600;-79
2022/07/20 00:44:05;;;;;;;9.98;4.45;;;;;;;20.43;50.65;100824.91;5042043;28;20098;-78
2022/07/20 00:46:33;;;;;;;8.55;4.45;;;;;;;20.38;50.60;100818.88;5039744;28;20048;-78
2022/07/20 00:48:59;;;;;;;7.78;4.15;;;;;;;20.29;51.33;100819.28;5042449;28;20468;-78
2022/07/20 00:51:24;;;;;;;7.60;3.83;;;;;;;20.26;51.39;100820.28;5043626;28;20029;-79
2022/07/20 00:53:51;;;;;;;7.32;4.38;;;;;;;20.14;51.92;100826.13;5042252;28;20069;-78
2022/07/20 00:56:17;;;;;;;10.13;4.40;;;;;;;20.10;51.69;100824.53;5045244;28;20044;-78
2022/07/20 00:58:43;;;;;;;12.98;5.28;;;;;;;20.08;51.89;100827.25;5025364;28;20068;-77
2022/07/20 01:01:08;;;;;;;7.97;4.45;;;;;;;20.08;51.84;100826.41;5043362;28;20068;-78
2022/07/20 01:03:33;;;;;;;6.65;4.07;;;;;;;20.05;52.10;100822.03;5041111;28;20043;-77
2022/07/20 01:05:59;;;;;;;8.93;4.85;;;;;;;20.08;51.55;100821.91;5010909;28;20411;-77
2022/07/20 01:08:26;;;;;;;6.45;4.22;;;;;;;20.06;52.20;100815.72;5041841;28;20396;-77
2022/07/20 01:10:52;;;;;;;7.05;3.90;;;;;;;20.01;51.99;100820.41;5044694;28;20032;-78
2022/07/20 01:13:17;;;;;;;7.70;4.35;;;;;;;19.99;52.64;100824.97;5025123;28;20029;-77
2022/07/20 01:15:43;;;;;;;7.80;4.43;;;;;;;19.97;52.67;100818.81;5039315;28;20630;-77
2022/07/20 01:18:08;;;;;;;7.55;4.60;;;;;;;19.86;52.91;100818.38;5038605;28;20480;-77
2022/07/20 01:20:35;;;;;;;7.28;4.03;;;;;;;19.83;54.06;100826.50;5043538;28;20663;-77
2022/07/20 01:23:01;;;;;;;10.18;5.25;;;;;;;19.82;53.39;100820.28;5044283;28;20385;-77
2022/07/20 01:25:26;;;;;;;9.68;6.20;;;;;;;19.88;52.31;100814.66;5041384;28;20044;-78
2022/07/20 01:27:55;;;;;;;11.27;5.68;;;;;;;19.97;52.65;100824.16;5041620;28;20041;-78
2022/07/20 01:30:20;;;;;;;8.27;5.13;;;;;;;20.01;52.13;100827.56;5043069;28;20583;-78
2022/07/20 01:32:46;;;;;;;9.90;5.95;;;;;;;20.05;51.65;100827.41;5039840;28;20124;-77
2022/07/20 01:35:11;;;;;;;10.57;6.07;;;;;;;20.09;51.45;100825.44;5043838;28;20128;-78
2022/07/20 01:37:36;;;;;;;9.95;5.68;;;;;;;20.10;51.37;100824.53;5041035;28;20073;-78
2022/07/20 01:40:02;;;;;;;11.80;5.53;;;;;;;20.10;51.44;100825.41;5044536;28;20067;-78
2022/07/20 01:42:27;;;;;;;10.35;5.70;;;;;;;20.10;51.23;100825.41;5040995;28;20069;-77
2022/07/20 01:44:53;;;;;;;11.52;5.90;;;;;;;20.09;51.21;100822.78;5043101;28;20041;-78
2022/07/20 01:47:18;;;;;;;11.25;5.63;;;;;;;20.02;51.95;100824.84;5009107;28;20087;-78
2022/07/20 01:49:43;;;;;;;13.10;5.55;;;;;;;19.89;52.84;100827.16;5040586;28;20037;-78
2022/07/20 01:52:08;;;;;;;11.65;5.38;;;;;;;19.73;52.84;100826.03;5043033;28;20041;-78
2022/07/20 01:54:34;;;;;;;9.23;5.50;;;;;;;19.64;52.69;100824.53;5039398;28;20049;-78
2022/07/20 01:56:59;;;;;;;14.88;7.03;;;;;;;19.70;52.45;100826.13;5042571;28;20052;-77
2022/07/20 01:59:24;;;;;;;10.63;6.72;;;;;;;19.73;52.17;100819.75;5029793;28;20033;-78
2022/07/20 02:01:51;;;;;;;13.35;7.28;;;;;;;19.73;52.62;100823.34;5039813;28;20508;-78
2022/07/20 02:04:16;;;;;;;14.00;7.07;;;;;;;19.73;52.34;100823.34;5040585;28;20040;-78
2022/07/20 02:06:41;;;;;;;10.57;5.93;;;;;;;19.75;52.15;100826.81;5042859;28;20037;-78
2022/07/20 02:09:07;;;;;;;10.50;5.78;;;;;;;19.76;52.20;100825.91;5039465;28;20141;-78
2022/07/20 02:11:32;;;;;;;11.32;5.75;;;;;;;19.73;51.94;100827.81;5039706;28;20041;-78
2022/07/20 02:13:57;;;;;;;11.00;5.07;;;;;;;19.71;52.30;100830.56;5043373;28;20109;-78
2022/07/20 02:16:23;;;;;;;8.63;5.25;;;;;;;19.67;52.80;100832.47;5041389;28;20159;-79
2022/07/20 02:18:52;;;;;;;11.40;4.88;;;;;;;19.63;53.36;100833.50;5041699;28;20041;-78
2022/07/20 02:21:20;;;;;;;8.70;4.55;;;;;;;19.53;53.59;100832.09;5042346;28;20024;-78
2022/07/20 02:23:46;;;;;;;7.13;5.05;;;;;;;19.49;53.42;100831.38;5040141;28;20033;-78
2022/07/20 02:26:11;;;;;;;10.95;4.93;;;;;;;19.49;53.39;100828.69;5041761;28;20024;-78
2022/07/20 02:28:37;;;;;;;9.70;5.28;;;;;;;19.54;53.41;100833.84;5041008;28;20439;-79
2022/07/20 02:31:05;;;;;;;8.70;6.07;;;;;;;19.58;52.86;100838.16;5039618;28;20068;-78
2022/07/20 02:33:30;;;;;;;7.90;5.32;;;;;;;19.59;53.03;100834.53;5040068;28;20047;-78
2022/07/20 02:35:56;;;;;;;9.02;5.30;;;;;;;19.58;53.21;100838.16;5036735;28;20042;-78
2022/07/20 02:38:21;;;;;;;12.55;5.35;;;;;;;19.53;53.32;100839.28;5002770;28;20127;-78
2022/07/20 02:40:47;;;;;;;12.07;5.90;;;;;;;19.51;53.17;100831.28;5042663;28;20041;-78
2022/07/20 02:43:12;;;;;;;8.18;4.93;;;;;;;19.51;52.97;100831.28;5040445;28;20037;-77
2022/07/20 02:45:37;;;;;;;8.32;5.05;;;;;;;19.52;53.27;100826.78;5041383;28;20053;-77
2022/07/20 02:48:03;;;;;;;7.25;4.90;;;;;;;19.53;53.27;100829.44;5041739;28;20079;-77
2022/07/20 02:50:37;;;;;;;7.47;4.43;;;;;;;19.55;53.41;100832.94;5040009;28;20037;-77
2022/07/20 02:53:04;;;;;;;11.93;4.90;;;;;;;19.51;53.46;100828.59;5042119;28;20072;-77
2022/07/20 02:55:29;;;;;;;8.32;4.78;;;;;;;19.44;53.90;100835.13;5040212;28;20062;-78
2022/07/20 02:57:55;;;;;;;10.23;4.93;;;;;;;19.39;54.09;100837.13;5037869;28;20033;-78
2022/07/20 03:00:21;;;;;;;11.20;4.43;;;;;;;19.32;54.43;100841.81;5040158;28;20056;-77
2022/07/20 03:02:47;;;;;;;42.80;8.32;;;;;;;19.24;54.34;100831.41;5038623;28;20066;-78
2022/07/20 03:05:12;;;;;;;6.93;4.45;;;;;;;19.19;54.90;100835.19;5039690;28;20098;-79
2022/07/20 03:07:38;;;;;;;11.75;4.22;;;;;;;19.14;54.83;100830.00;5041282;28;20033;-78
2022/07/20 03:10:04;;;;;;;13.07;4.45;;;;;;;19.09;55.35;100834.63;5041021;28;20116;-78
2022/07/20 03:12:30;;;;;;;14.23;5.38;;;;;;;19.05;55.34;100838.38;5039888;28;20038;-78
2022/07/20 03:14:55;;;;;;;9.38;4.38;;;;;;;19.01;55.81;100848.28;5036450;28;20124;-78
2022/07/20 03:17:21;;;;;;;9.30;4.28;;;;;;;18.99;56.05;100842.16;5038007;28;20032;-78
2022/07/20 03:19:46;;;;;;;6.57;4.20;;;;;;;18.90;56.49;100845.13;5007935;28;20045;-78
2022/07/20 03:22:12;;;;;;;6.57;4.50;;;;;;;18.85;56.92;100846.22;5040416;28;20033;-77
2022/07/20 03:24:37;;;;;;;7.28;4.25;;;;;;;18.79;57.27;100850.88;5038191;28;20485;-78
2022/07/20 03:27:04;;;;;;;6.88;3.92;;;;;;;18.79;57.18;100853.53;5041046;28;20068;-77
2022/07/20 03:29:29;;;;;;;12.85;5.03;;;;;;;18.82;57.18;100848.09;5039750;28;20041;-77
2022/07/20 03:31:54;;;;;;;16.60;5.97;;;;;;;18.78;56.75;100845.56;5035415;28;20087;-77
2022/07/20 03:34:20;;;;;;;11.50;4.75;;;;;;;18.76;57.34;100842.97;5040264;28;20045;-78
2022/07/20 03:36:45;;;;;;;13.02;5.63;;;;;;;18.76;57.52;100852.78;5039559;28;20052;-77
2022/07/20 03:39:10;;;;;;;9.20;4.78;;;;;;;18.79;57.79;100848.19;5040093;28;20052;-77
2022/07/20 03:41:36;;;;;;;6.50;3.80;;;;;;;18.81;57.84;100848.13;5040374;28;20044;-78
2022/07/20 03:44:01;;;;;;;8.85;4.50;;;;;;;18.82;57.99;100852.56;5039963;28;20049;-77
2022/07/20 03:46:26;;;;;;;9.85;4.35;;;;;;;18.82;57.74;100853.44;5002158;28;20037;-77
2022/07/20 03:48:52;;;;;;;8.25;4.43;;;;;;;18.83;58.56;100848.94;5041728;28;20041;-78
2022/07/20 03:51:17;;;;;;;9.20;4.80;;;;;;;18.90;58.23;100854.97;5038398;28;20033;-78
2022/07/20 03:53:42;;;;;;;8.88;4.30;;;;;;;18.94;57.94;100846.78;5041741;28;20048;-77
2022/07/20 03:56:08;;;;;;;7.55;4.50;;;;;;;19.00;58.21;100851.91;5040519;28;20033;-78
2022/07/20 03:58:33;;;;;;;9.38;4.20;;;;;;;19.08;57.97;100846.28;5040105;28;20028;-78
2022/07/20 04:00:58;;;;;;;7.88;4.63;;;;;;;19.15;57.98;100845.13;5040854;28;20041;-78
2022/07/20 04:03:24;;;;;;;12.70;4.82;;;;;;;19.24;58.01;100842.09;5039020;28;20078;-78
2022/07/20 04:05:49;;;;;;;10.05;5.07;;;;;;;19.34;57.83;100844.47;5038808;28;20095;-78
2022/07/20 04:08:14;;;;;;;16.20;4.80;;;;;;;19.42;57.60;100845.03;5041678;28;20037;-78
2022/07/20 04:10:40;;;;;;;9.93;4.65;;;;;;;19.52;57.46;100849.13;5039816;28;20082;-77
2022/07/20 04:13:05;;;;;;;12.55;4.90;;;;;;;19.58;57.40;100848.88;5040202;28;20107;-78
2022/07/20 04:15:31;;;;;;;12.13;4.25;;;;;;;19.65;57.35;100850.38;5024342;28;20169;-80
2022/07/20 04:17:56;;;;;;;13.75;5.35;;;;;;;19.68;57.57;100839.59;5039444;28;20056;-80
2022/07/20 04:20:21;;;;;;;14.65;4.55;;;;;;;19.80;56.85;100848.94;5047020;28;20045;-80
2022/07/20 04:22:47;;;;;;;15.00;4.78;;;;;;;19.91;57.04;100852.06;5039009;28;20047;-80
2022/07/20 04:25:12;;;;;;;12.55;4.30;;;;;;;19.96;56.80;100856.34;5046493;28;20029;-79
2022/07/20 04:27:38;;;;;;;14.00;4.47;;;;;;;20.03;56.68;100847.16;5040354;28;20431;-80
2022/07/20 04:30:03;;;;;;;11.77;4.82;;;;;;;20.06;56.85;100850.56;5045496;28;20025;-80
2022/07/20 04:32:29;;;;;;;8.93;4.43;;;;;;;20.11;56.29;100853.94;5026825;28;20055;-80
2022/07/20 04:34:54;;;;;;;10.35;4.40;;;;;;;20.16;56.39;100855.56;5043781;28;20480;-80
2022/07/20 04:37:21;;;;;;;9.38;5.38;;;;;;;20.31;56.17;100857.63;5021927;28;20042;-80
2022/07/20 04:39:46;;;;;;;7.35;5.00;;;;;;;20.39;56.76;100860.84;5027177;28;20532;-80
2022/07/20 04:42:12;;;;;;;9.60;5.32;;;;;;;20.47;56.72;100857.84;5038402;28;20094;-80
2022/07/20 04:44:37;;;;;;;24.23;6.32;;;;;;;20.57;55.87;100857.44;5042568;28;20033;-78
2022/07/20 04:47:02;;;;;;;22.65;7.40;;;;;;;20.64;56.41;100863.38;5037894;28;20089;-78
2022/07/20 04:49:28;;;;;;;10.00;5.85;;;;;;;20.69;55.75;100858.69;5038384;28;20029;-76
2022/07/20 04:51:53;;;;;;;12.18;6.40;;;;;;;20.72;55.95;100855.00;5035775;28;20112;-78
2022/07/20 04:54:18;;;;;;;10.43;4.80;;;;;;;20.87;55.58;100861.53;5035531;28;20048;-78
2022/07/20 04:56:44;;;;;;;9.93;5.22;;;;;;;20.98;54.82;100860.09;5042703;28;20495;-77
2022/07/20 04:59:09;;;;;;;13.23;6.88;;;;;;;21.13;54.87;100860.38;5038841;28;20112;-76
2022/07/20 05:01:35;;;;;;;9.57;7.32;;;;;;;21.27;54.33;100865.97;5037666;28;20768;-76
2022/07/20 05:04:00;;;;;;;11.18;6.45;;;;;;;21.40;54.09;100853.78;5036124;28;20095;-77
2022/07/20 05:06:25;;;;;;;10.07;7.85;;;;;;;21.51;53.46;100855.09;5028108;28;20159;-77
2022/07/20 05:08:51;;;;;;;11.45;6.40;;;;;;;21.64;53.04;100854.47;5039730;28;20156;-78
2022/07/20 05:11:16;;;;;;;9.45;5.32;;;;;;;21.73;52.80;100853.16;5043982;28;20108;-77
2022/07/20 05:13:41;;;;;;;10.02;5.18;;;;;;;21.79;52.41;100860.91;5041075;28;20420;-77
2022/07/20 05:16:07;;;;;;;7.95;5.20;;;;;;;21.79;52.42;100860.03;5043483;28;20484;-77
2022/07/20 05:18:33;;;;;;;10.27;4.55;;;;;;;21.89;52.70;100859.53;5043595;28;20056;-77
2022/07/20 05:20:58;;;;;;;9.73;5.70;;;;;;;21.99;52.01;100861.78;5041717;28;20033;-77
2022/07/20 05:23:24;;;;;;;11.85;6.53;;;;;;;22.09;51.90;100863.09;5044952;28;20383;-77
2022/07/20 05:25:49;;;;;;;7.97;5.70;;;;;;;22.20;51.69;100860.78;5042004;28;20518;-77
2022/07/20 05:28:18;;;;;;;7.47;4.80;;;;;;;22.35;51.27;100866.31;5042991;28;20074;-77
2022/07/20 05:30:46;;;;;;;7.07;4.28;;;;;;;22.45;50.84;100864.91;5032608;28;20048;-77
2022/07/20 05:33:11;;;;;;;7.53;5.32;;;;;;;22.54;51.12;100870.72;5043392;28;20391;-77
2022/07/20 05:35:37;;;;;;;9.77;6.03;;;;;;;22.69;50.61;100871.75;5041643;28;20048;-77
2022/07/20 05:38:02;;;;;;;10.00;6.70;;;;;;;22.85;50.42;100876.34;5043198;28;20768;-77
2022/07/20 05:40:27;;;;;;;11.32;7.88;;;;;;;22.96;50.03;100876.66;5041788;28;20065;-78
2022/07/20 05:42:53;;;;;;;8.75;6.10;;;;;;;23.03;50.25;100867.34;5042915;28;20719;-77
2022/07/20 05:45:18;;;;;;;7.93;5.95;;;;;;;23.20;50.27;100869.13;5043248;28;20033;-77
2022/07/20 05:47:43;;;;;;;9.52;6.43;;;;;;;23.33;49.88;100869.34;5040731;28;20052;-77
2022/07/20 05:50:09;;;;;;;14.38;8.00;;;;;;;23.32;50.41;100871.19;5044024;28;20059;-77
2022/07/20 05:52:34;;;;;;;10.68;7.25;;;;;;;23.43;50.03;100864.34;5040767;28;20041;-77
2022/07/20 05:55:00;;;;;;;7.88;5.13;;;;;;;23.56;49.59;100874.34;5039299;28;20044;-77
2022/07/20 05:57:26;;;;;;;11.18;6.30;;;;;;;23.67;49.10;100879.16;5042078;28;20086;-77
2022/07/20 05:59:51;;;;;;;9.10;6.50;;;;;;;23.80;48.94;100880.22;5042701;28;20037;-78
2022/07/20 06:02:16;;;;;;;9.63;5.18;;;;;;;23.99;48.18;100876.50;5037034;28;20040;-78
2022/07/20 06:04:42;;;;;;;9.65;6.45;;;;;;;24.12;47.79;100879.38;5034724;28;20037;-78
2022/07/20 06:07:07;;;;;;;11.52;5.97;;;;;;;24.27;47.71;100875.81;5042280;28;20041;-78
2022/07/20 06:09:32;;;;;;;12.88;7.60;;;;;;;24.43;47.20;100868.53;5044383;28;20037;-78
2022/07/20 06:11:58;;;;;;;11.02;7.20;;;;;;;24.56;47.00;100866.03;5038358;28;20025;-78
2022/07/20 06:14:23;;;;;;;10.23;6.32;;;;;;;24.70;46.80;100867.91;5028883;28;20037;-78
2022/07/20 06:16:48;;;;;;;11.20;5.00;;;;;;;24.78;46.11;100870.13;5044028;28;20037;-78
2022/07/20 06:19:16;;;;;;;9.57;4.85;;;;;;;24.86;46.25;100874.13;5042540;28;20160;-78
2022/07/20 06:21:41;;;;;;;18.65;7.53;;;;;;;24.97;46.21;100877.97;5043913;28;20032;-78
2022/07/20 06:24:09;;;;;;;13.73;4.35;;;;;;;25.08;45.51;100870.97;5039589;28;20052;-78
2022/07/20 06:26:34;;;;;;;19.23;8.52;;;;;;;25.21;45.08;100876.53;5041545;28;20036;-78
2022/07/20 06:29:00;;;;;;;9.50;6.65;;;;;;;25.34;45.09;100873.94;5042463;28;20120;-78
2022/07/20 06:31:26;;;;;;;10.10;5.88;;;;;;;25.51;45.20;100883.66;5044591;28;20045;-78
2022/07/20 06:33:52;;;;;;;9.05;5.80;;;;;;;25.65;44.45;100880.97;5041143;28;20503;-78
2022/07/20 06:36:18;;;;;;;12.52;4.45;;;;;;;25.76;45.03;100889.25;5037189;28;20076;-78
2022/07/20 06:38:44;;;;;;;6.03;3.70;;;;;;;25.82;44.50;100892.53;5037880;28;20571;-78
2022/07/20 06:41:09;;;;;;;7.80;4.20;;;;;;;25.92;44.51;100885.59;5041603;28;20068;-78
2022/07/20 06:43:34;;;;;;;7.55;4.60;;;;;;;26.05;43.92;100888.38;5042564;28;20115;-78
2022/07/20 06:46:00;;;;;;;6.70;4.20;;;;;;;26.11;42.19;100878.00;5041551;28;20037;-78
2022/07/20 06:48:25;;;;;;;7.50;5.80;;;;;;;26.20;42.32;100881.97;5041752;28;20034;-78
2022/07/20 06:50:50;;;;;;;11.43;5.35;;;;;;;26.36;41.98;100888.09;5044134;28;20048;-78
2022/07/20 06:53:16;;;;;;;8.77;6.30;;;;;;;26.55;41.60;100886.91;5035963;28;20045;-78
2022/07/20 06:55:41;;;;;;;11.30;4.88;;;;;;;26.71;41.26;100881.31;5049157;28;20037;-80
2022/07/20 06:58:06;;;;;;;7.25;5.63;;;;;;;26.87;40.48;100880.13;5040994;28;20041;-80
2022/07/20 07:00:32;;;;;;;15.07;7.07;;;;;;;27.01;40.05;100873.78;5043533;28;20049;-80
2022/07/20 07:02:57;;;;;;;11.40;7.80;;;;;;;27.14;40.08;100872.91;5023614;28;20045;-80
2022/07/20 07:05:22;;;;;;;13.93;5.93;;;;;;;27.29;39.65;100874.56;5022834;28;20041;-80
2022/07/20 07:07:48;;;;;;;11.55;6.20;;;;;;;27.43;39.59;100870.88;5037833;28;20045;-80
2022/07/20 07:10:13;;;;;;;12.05;6.10;;;;;;;27.54;39.27;100869.13;5040534;28;20041;-80
2022/07/20 07:12:38;;;;;;;9.00;4.55;;;;;;;27.61;38.59;100865.97;5007651;28;20504;-80
2022/07/20 07:15:04;;;;;;;13.57;7.68;;;;;;;27.74;38.51;100855.97;5041130;28;20599;-81
2022/07/20 07:17:30;;;;;;;10.85;8.00;;;;;;;27.91;38.50;100860.19;5042743;28;20039;-80
2022/07/20 07:19:59;;;;;;;7.75;4.32;;;;;;;28.05;37.83;100854.59;5044065;28;20068;-80
2022/07/20 07:22:26;;;;;;;8.77;6.95;;;;;;;28.21;37.92;100859.75;5039380;28;20038;-80
2022/07/20 07:24:51;;;;;;;12.80;7.70;;;;;;;28.33;38.32;100857.97;5044239;28;20622;-80
2022/07/20 07:27:16;;;;;;;13.52;8.25;;;;;;;28.48;37.81;100861.38;5042978;28;20053;-81
2022/07/20 07:29:42;;;;;;;11.93;5.78;;;;;;;28.61;37.23;100862.19;5043159;28;20041;-80
2022/07/20 07:32:07;;;;;;;5.82;4.07;;;;;;;28.74;36.59;100863.00;5041558;28;20037;-80
2022/07/20 07:34:32;;;;;;;9.63;5.28;;;;;;;28.88;37.00;100863.78;5042190;28;20044;-80
2022/07/20 07:36:58;;;;;;;11.07;4.15;;;;;;;29.01;36.27;100864.53;5044524;28;20037;-80
2022/07/20 07:39:23;;;;;;;7.43;4.72;;;;;;;29.15;36.21;100866.19;5041429;28;20044;-81
2022/07/20 07:41:48;;;;;;;6.32;3.05;;;;;;;29.30;35.44;100872.28;5044366;28;20041;-81
2022/07/20 07:44:13;;;;;;;7.80;4.57;;;;;;;29.47;35.49;100871.78;5042150;28;20051;-81
2022/07/20 07:46:39;;;;;;;13.35;5.95;;;;;;;29.60;34.91;100867.06;5042628;28;20116;-81
2022/07/20 07:49:05;;;;;;;11.77;5.90;;;;;;;29.74;34.40;100868.72;5042214;28;20172;-81
2022/07/20 07:51:31;;;;;;;9.70;5.85;;;;;;;29.86;33.95;100866.84;5019892;28;20038;-80
2022/07/20 07:53:57;;;;;;;17.90;5.55;;;;;;;29.99;34.00;100867.56;5037373;28;20060;-80
2022/07/20 07:56:22;;;;;;;9.20;3.00;;;;;;;30.08;33.33;100865.97;5045345;28;20041;-80
2022/07/20 07:58:47;;;;;;;8.10;3.25;;;;;;;30.18;33.15;100863.31;5044284;28;20477;-81
2022/07/20 08:01:13;;;;;;;13.20;3.58;;;;;;;30.28;32.31;100865.16;5044386;28;21014;-81
2022/07/20 08:03:38;;;;;;;9.90;6.38;;;;;;;30.43;32.74;100860.28;5043246;28;20033;-80
2022/07/20 08:06:04;;;;;;;6.75;3.45;;;;;;;30.55;31.65;100848.38;5041445;28;20033;-81
2022/07/20 08:08:30;;;;;;;7.60;5.78;;;;;;;30.69;32.33;100849.91;5043765;28;20061;-80
2022/07/20 08:10:56;;;;;;;12.45;5.50;;;;;;;30.84;32.28;100853.22;5043130;28;20065;-81
2022/07/20 08:13:22;;;;;;;6.85;4.07;;;;;;;30.93;31.23;100855.13;5046813;28;20051;-81
2022/07/20 08:15:47;;;;;;;6.70;3.55;;;;;;;31.08;30.90;100849.34;5043928;28;20033;-80
2022/07/20 08:18:13;;;;;;;10.60;4.88;;;;;;;31.20;30.86;100846.41;5043242;28;20072;-81
2022/07/20 08:20:38;;;;;;;12.27;5.03;;;;;;;31.30;30.20;100838.25;5043970;28;20041;-81
2022/07/20 08:23:03;;;;;;;10.27;6.70;;;;;;;31.41;30.31;100843.66;5046759;28;20036;-81
2022/07/20 08:25:29;;;;;;;12.68;5.90;;;;;;;31.51;29.60;100840.97;5041250;28;20048;-81
2022/07/20 08:27:54;;;;;;;10.60;5.70;;;;;;;31.59;30.32;100843.00;5040204;28;20029;-81
2022/07/20 08:30:20;;;;;;;19.75;5.65;;;;;;;31.73;29.84;100844.47;5045284;28;20119;-81
2022/07/20 08:32:45;;;;;;;10.63;5.65;;;;;;;31.88;29.75;100835.75;5042619;28;20029;-81
2022/07/20 08:35:11;;;;;;;10.15;5.43;;;;;;;32.02;29.28;100828.22;5043695;28;20112;-81
2022/07/20 08:37:39;;;;;;;9.63;3.53;;;;;;;32.11;28.77;100831.97;5043155;28;20081;-81
2022/07/20 08:40:06;;;;;;;9.65;5.47;;;;;;;32.13;29.03;100833.53;5041309;28;20029;-81
2022/07/20 08:42:32;;;;;;;12.43;4.55;;;;;;;32.27;28.38;100832.25;5044092;28;20442;-81
2022/07/20 08:44:57;;;;;;;12.40;5.00;;;;;;;32.35;27.79;100840.59;5041303;28;20160;-81
2022/07/20 08:47:25;;;;;;;11.95;7.18;;;;;;;32.37;27.35;100837.72;5035983;28;20047;-81
2022/07/20 08:49:50;;;;;;;11.13;5.80;;;;;;;32.49;27.46;100831.16;5043872;28;20053;-81
2022/07/20 08:52:17;;;;;;;6.47;3.88;;;;;;;32.59;27.38;100826.53;5041385;28;20041;-81
2022/07/20 08:54:43;;;;;;;12.38;5.65;;;;;;;32.74;27.49;100824.22;5044266;28;20033;-81
2022/07/20 08:57:15;;;;;;;8.68;3.55;;;;;;;32.87;26.38;100815.72;5045202;28;20044;-81
2022/07/20 08:59:41;;;;;;;14.15;5.72;;;;;;;33.04;26.66;100815.00;5013079;28;20434;-81
2022/07/20 09:02:08;;;;;;;12.88;4.90;;;;;;;33.20;26.36;100824.41;5040153;28;20099;-81
2022/07/20 09:05:01;;;;;;;8.98;3.85;;;;;;;33.42;25.32;100818.56;5022745;28;20053;-81
2022/07/20 09:07:37;;;;;;;7.50;4.45;;;;;;;33.57;25.53;100817.09;5040150;28;20053;-81
2022/07/20 09:10:05;;;;;;;12.57;3.00;;;;;;;33.71;25.75;100817.59;5044529;28;20103;-81
2022/07/20 09:12:30;;;;;;;6.18;3.70;;;;;;;33.85;25.64;100814.34;5029488;28;20559;-81
2022/07/20 09:14:56;;;;;;;4.80;2.35;;;;;;;33.88;24.67;100813.16;5046789;28;20083;-81
2022/07/20 09:17:23;;;;;;;6.13;3.40;;;;;;;33.99;24.99;100812.97;5042189;28;20045;-81
2022/07/20 09:19:55;;;;;;;6.60;3.33;;;;;;;34.17;24.46;100813.88;5032585;28;20040;-81
2022/07/20 09:22:32;;;;;;;6.32;2.38;;;;;;;34.21;24.19;100804.31;5041794;28;20107;-81
2022/07/20 09:25:15;;;;;;;11.68;5.35;;;;;;;34.41;25.00;100804.16;5044983;28;20037;-81
2022/07/20 09:27:41;;;;;;;8.30;5.05;;;;;;;34.59;25.25;100795.94;5054371;28;20554;-82
2022/07/20 09:30:12;;;;;;;6.22;2.13;;;;;;;34.60;24.01;100794.91;5044652;28;20136;-81
2022/07/20 09:32:59;;;;;;;8.57;3.85;;;;;;;34.68;24.06;100794.97;5043204;28;20091;-81
2022/07/20 09:35:28;;;;;;;6.75;4.53;;;;;;;34.78;23.95;100797.63;5018612;28;20037;-81
2022/07/20 09:37:55;;;;;;;7.78;4.60;;;;;;;34.88;23.82;100791.00;5039806;28;20164;-82
2022/07/20 09:40:21;;;;;;;10.98;3.83;;;;;;;35.04;23.70;100783.91;5045632;28;20480;-81
2022/07/20 09:42:47;;;;;;;6.93;3.47;;;;;;;35.11;23.17;100785.88;5042714;28;20033;-82
2022/07/20 09:45:28;;;;;;;8.20;3.95;;;;;;;35.17;22.11;100781.63;5043005;28;20045;-82
2022/07/20 09:48:08;;;;;;;7.15;4.05;;;;;;;35.30;22.74;100786.66;5033065;28;20905;-82
2022/07/20 09:50:37;;;;;;;9.63;4.40;;;;;;;35.33;22.13;100784.44;5041941;28;20045;-82
2022/07/20 09:53:03;;;;;;;9.68;4.05;;;;;;;35.43;22.47;100777.97;5044154;28;20056;-82
2022/07/20 09:55:42;;;;;;;7.05;3.83;;;;;;;35.56;21.45;100781.97;5043554;28;20033;-82
2022/07/20 09:58:08;;;;;;;7.38;3.95;;;;;;;35.66;20.79;100773.63;5044397;28;20044;-82
2022/07/20 10:00:35;;;;;;;8.77;5.43;;;;;;;35.75;21.34;100778.09;5027255;28;20045;-80
2022/07/20 10:03:03;;;;;;;7.88;3.38;;;;;;;35.90;20.66;100774.72;5042723;28;20049;-79
2022/07/20 10:05:35;;;;;;;5.43;3.35;;;;;;;35.95;20.18;100772.31;5043841;28;20048;-80
2022/07/20 10:08:03;;;;;;;8.18;2.97;;;;;;;36.02;20.57;100777.97;5039464;28;20049;-80
2022/07/20 10:10:29;;;;;;;10.48;4.38;;;;;;;36.12;21.10;100768.56;5030503;28;20581;-80
2022/07/20 10:12:55;;;;;;;9.80;5.05;;;;;;;36.23;21.62;100763.78;5052044;28;20029;-80
2022/07/20 10:15:28;;;;;;;9.15;4.13;;;;;;;36.32;19.53;100763.63;5040456;28;20502;-80
2022/07/20 10:17:54;;;;;;;9.05;3.85;;;;;;;36.42;20.21;100763.44;5036148;28;20063;-80
2022/07/20 10:20:33;;;;;;;8.38;4.38;;;;;;;36.38;19.07;100759.31;5044375;28;20037;-83
2022/07/20 10:23:13;;;;;;;5.43;3.08;;;;;;;36.39;18.29;100753.66;5026729;28;20064;-83
2022/07/20 10:25:39;;;;;;;11.05;5.60;;;;;;;36.44;19.19;100755.88;5043392;28;20061;-83
2022/07/20 10:28:26;;;;;;;6.20;4.13;;;;;;;36.58;19.27;100748.88;5021248;28;20025;-83
2022/07/20 10:30:56;;;;;;;5.88;4.30;;;;;;;36.74;20.29;100757.09;5047463;28;20068;-83
2022/07/20 10:33:23;;;;;;;10.32;2.72;;;;;;;36.80;19.80;100750.88;5043798;28;20033;-83
2022/07/20 10:35:49;;;;;;;8.00;2.63;;;;;;;36.88;19.29;100751.91;5048697;28;20083;-83
2022/07/20 10:38:18;;;;;;;8.98;3.35;;;;;;;36.97;19.12;100750.81;5053276;28;20403;-83
2022/07/20 10:44:19;;;;;;;11.50;7.30;;;;;;;37.11;18.60;100749.28;5046225;28;20048;-83
2022/07/20 10:46:46;;;;;;;6.43;3.65;;;;;;;37.25;18.82;100743.03;5048408;28;20087;-83
2022/07/20 10:49:11;;;;;;;14.45;7.93;;;;;;;37.36;19.21;100741.75;5030758;28;20404;-83
2022/07/20 10:51:37;;;;;;;9.40;4.50;;;;;;;37.51;18.95;100729.00;5036585;28;20033;-81
2022/07/20 10:54:30;;;;;;;5.22;3.25;;;;;;;37.60;18.08;100721.53;5042545;28;20408;-83
2022/07/20 10:56:57;;;;;;;11.90;4.32;;;;;;;37.66;19.00;100726.34;5040377;28;20163;-82
2022/07/20 10:59:22;;;;;;;10.73;5.32;;;;;;;37.75;18.70;100727.97;5044542;28;20048;-81
2022/07/20 11:01:47;;;;;;;6.05;4.15;;;;;;;37.86;18.32;100724.81;5026633;28;20037;-81
2022/07/20 11:04:13;;;;;;;8.48;4.88;;;;;;;37.82;18.38;100720.72;5041829;28;20034;-80
2022/07/20 11:06:40;;;;;;;11.15;4.20;;;;;;;37.81;17.52;100727.28;5041547;28;20024;-81
2022/07/20 11:09:05;;;;;;;7.50;4.07;;;;;;;37.87;18.38;100733.94;5043700;28;20044;-81
2022/07/20 11:11:34;;;;;;;8.80;3.20;;;;;;;37.95;17.66;100731.13;5045982;28;20037;-81
2022/07/20 11:14:01;;;;;;;11.63;4.10;;;;;;;38.16;17.93;100716.69;5038203;28;20040;-81
2022/07/20 11:16:27;;;;;;;11.52;4.10;;;;;;;38.30;17.87;100713.09;5040997;28;20047;-81
2022/07/20 11:19:36;;;;;;;6.95;3.50;;;;;;;38.51;16.88;100706.06;5028093;22;20077;-81
2022/07/20 11:22:33;;;;;;;6.85;3.78;;;;;;;38.60;16.49;100709.59;5002248;28;20117;-81
2022/07/20 11:25:24;;;;;;;12.15;4.90;;;;;;;38.76;17.19;100718.53;5008132;28;20029;-81
2022/07/20 11:28:02;;;;;;;12.77;4.43;;;;;;;38.83;16.87;100702.09;4999462;28;20065;-81